sensor_id;sensor_type;location;lat;lon;timestamp;P1;durP1;ratioP1;P2;durP2;ratioP2
10825;SDS011;5466;55.898;14.094;2023-07-20T00:01:44;5.88;;;4.22;;
10825;SDS011;5466;55.898;14.094;2023-07-20T00:03:45;9.05;;;4.28;;
10825;SDS011;5466;55.898;14.094;2023-07-20T00:05:48;7.15;;;4.20;;
10825;SDS011;5466;55.898;14.094;2023-07-20T00:07:49;8.57;;;4.05;;
10825;SDS011;5466;55.898;14.094;2023-07-20T00:09:52;6.25;;;4.10;;
10825;SDS011;5466;55.898;14.094;2023-07-20T00:11:52;6.20;;;3.80;;
10825;SDS011;5466;55.898;14.094;2023-07-20T00:13:53;7.18;;;4.15;;
10825;SDS011;5466;55.898;14.094;2023-07-20T00:15:54;11.20;;;4.03;;
10825;SDS011;5466;55.898;14.094;2023-07-20T00:17:54;4.18;;;3.75;;
10825;SDS011;5466;55.898;14.094;2023-07-20T00:19:55;8.05;;;4.05;;
10825;SDS011;5466;55.898;14.094;2023-07-20T00:21:56;6.43;;;3.63;;
10825;SDS011;5466;55.898;14.094;2023-07-20T00:23:56;6.07;;;3.67;;
10825;SDS011;5466;55.898;14.094;2023-07-20T00:25:57;5.35;;;3.65;;
10825;SDS011;5466;55.898;14.094;2023-07-20T00:27:57;10.57;;;3.97;;
10825;SDS011;5466;55.898;14.094;2023-07-20T00:29:58;7.65;;;3.97;;
10825;SDS011;5466;55.898;14.094;2023-07-20T00:31:58;6.03;;;3.85;;
10825;SDS011;5466;55.898;14.094;2023-07-20T00:33:59;5.63;;;4.13;;
10825;SDS011;5466;55.898;14.094;2023-07-20T00:35:59;6.53;;;4.00;;
10825;SDS011;5466;55.898;14.094;2023-07-20T00:38:00;8.93;;;4.63;;
10825;SDS011;5466;55.898;14.094;2023-07-20T00:40:01;7.95;;;3.83;;
10825;SDS011;5466;55.898;14.094;2023-07-20T00:42:04;5.43;;;3.83;;
10825;SDS011;5466;55.898;14.094;2023-07-20T00:44:05;9.10;;;3.90;;
10825;SDS011;5466;55.898;14.094;2023-07-20T00:46:07;6.93;;;3.80;;
10825;SDS011;5466;55.898;14.094;2023-07-20T00:48:08;7.65;;;3.70;;
10825;SDS011;5466;55.898;14.094;2023-07-20T00:50:09;6.72;;;3.65;;
10825;SDS011;5466;55.898;14.094;2023-07-20T00:52:10;6.40;;;4.18;;
10825;SDS011;5466;55.898;14.094;2023-07-20T00:54:14;7.03;;;3.72;;
10825;SDS011;5466;55.898;14.094;2023-07-20T00:56:16;5.95;;;3.72;;
10825;SDS011;5466;55.898;14.094;2023-07-20T00:58:18;6.88;;;4.32;;
10825;SDS011;5466;55.898;14.094;2023-07-20T01:00:19;8.07;;;4.35;;
10825;SDS011;5466;55.898;14.094;2023-07-20T01:02:19;10.63;;;3.88;;
10825;SDS011;5466;55.898;14.094;2023-07-20T01:04:20;8.50;;;4.63;;
10825;SDS011;5466;55.898;14.094;2023-07-20T01:06:56;6.53;;;4.18;;
10825;SDS011;5466;55.898;14.094;2023-07-20T01:11:10;7.18;;;4.35;;
10825;SDS011;5466;55.898;14.094;2023-07-20T01:13:17;7.90;;;4.82;;
10825;SDS011;5466;55.898;14.094;2023-07-20T01:15:19;9.40;;;4.55;;
10825;SDS011;5466;55.898;14.094;2023-07-20T01:17:19;8.13;;;4.45;;
10825;SDS011;5466;55.898;14.094;2023-07-20T01:19:20;7.70;;;4.65;;
10825;SDS011;5466;55.898;14.094;2023-07-20T01:21:22;8.25;;;5.00;;
10825;SDS011;5466;55.898;14.094;2023-07-20T01:23:36;8.73;;;5.30;;
10825;SDS011;5466;55.898;14.094;2023-07-20T01:28:37;8.38;;;4.15;;
10825;SDS011;5466;55.898;14.094;2023-07-20T01:31:13;9.02;;;4.30;;
10825;SDS011;5466;55.898;14.094;2023-07-20T01:33:13;9.63;;;4.68;;
10825;SDS011;5466;55.898;14.094;2023-07-20T01:35:16;5.65;;;4.40;;
10825;SDS011;5466;55.898;14.094;2023-07-20T01:37:19;6.53;;;4.28;;
10825;SDS011;5466;55.898;14.094;2023-07-20T01:39:25;10.25;;;4.93;;
10825;SDS011;5466;55.898;14.094;2023-07-20T01:41:26;8.73;;;4.10;;
10825;SDS011;5466;55.898;14.094;2023-07-20T01:43:27;4.80;;;4.18;;
10825;SDS011;5466;55.898;14.094;2023-07-20T01:45:27;6.47;;;4.20;;
10825;SDS011;5466;55.898;14.094;2023-07-20T01:47:28;5.68;;;4.00;;
10825;SDS011;5466;55.898;14.094;2023-07-20T01:49:29;7.13;;;4.15;;
10825;SDS011;5466;55.898;14.094;2023-07-20T01:51:29;5.93;;;4.45;;
10825;SDS011;5466;55.898;14.094;2023-07-20T01:53:30;9.25;;;3.90;;
10825;SDS011;5466;55.898;14.094;2023-07-20T01:55:30;6.78;;;4.20;;
10825;SDS011;5466;55.898;14.094;2023-07-20T01:57:31;6.95;;;4.28;;
10825;SDS011;5466;55.898;14.094;2023-07-20T01:59:32;6.60;;;4.70;;
10825;SDS011;5466;55.898;14.094;2023-07-20T02:01:32;6.65;;;4.45;;
10825;SDS011;5466;55.898;14.094;2023-07-20T02:03:33;6.75;;;4.10;;
10825;SDS011;5466;55.898;14.094;2023-07-20T02:05:34;13.73;;;4.13;;
10825;SDS011;5466;55.898;14.094;2023-07-20T02:07:34;5.32;;;3.97;;
10825;SDS011;5466;55.898;14.094;2023-07-20T02:09:35;4.85;;;3.50;;
10825;SDS011;5466;55.898;14.094;2023-07-20T02:11:35;6.30;;;3.85;;
10825;SDS011;5466;55.898;14.094;2023-07-20T02:13:36;7.07;;;4.00;;
10825;SDS011;5466;55.898;14.094;2023-07-20T02:15:37;4.45;;;3.42;;
10825;SDS011;5466;55.898;14.094;2023-07-20T02:17:37;4.45;;;3.45;;
10825;SDS011;5466;55.898;14.094;2023-07-20T02:19:40;7.72;;;3.95;;
10825;SDS011;5466;55.898;14.094;2023-07-20T02:21:41;7.32;;;3.97;;
10825;SDS011;5466;55.898;14.094;2023-07-20T02:23:42;7.13;;;3.88;;
10825;SDS011;5466;55.898;14.094;2023-07-20T02:25:42;6.60;;;4.00;;
10825;SDS011;5466;55.898;14.094;2023-07-20T02:27:44;5.78;;;3.72;;
10825;SDS011;5466;55.898;14.094;2023-07-20T02:29:44;4.95;;;4.15;;
10825;SDS011;5466;55.898;14.094;2023-07-20T02:31:45;5.30;;;3.45;;
10825;SDS011;5466;55.898;14.094;2023-07-20T02:33:46;5.82;;;4.50;;
10825;SDS011;5466;55.898;14.094;2023-07-20T02:35:46;5.80;;;3.47;;
10825;SDS011;5466;55.898;14.094;2023-07-20T02:37:47;5.10;;;3.60;;
10825;SDS011;5466;55.898;14.094;2023-07-20T02:39:47;6.50;;;4.40;;
10825;SDS011;5466;55.898;14.094;2023-07-20T02:41:48;4.68;;;3.63;;
10825;SDS011;5466;55.898;14.094;2023-07-20T02:43:48;7.03;;;3.30;;
10825;SDS011;5466;55.898;14.094;2023-07-20T02:45:50;6.60;;;4.10;;
10825;SDS011;5466;55.898;14.094;2023-07-20T02:47:51;7.38;;;4.30;;
10825;SDS011;5466;55.898;14.094;2023-07-20T02:49:51;4.97;;;4.05;;
10825;SDS011;5466;55.898;14.094;2023-07-20T02:51:52;5.15;;;3.40;;
10825;SDS011;5466;55.898;14.094;2023-07-20T02:53:52;10.65;;;4.22;;
10825;SDS011;5466;55.898;14.094;2023-07-20T02:55:53;6.75;;;3.95;;
10825;SDS011;5466;55.898;14.094;2023-07-20T02:57:53;7.22;;;3.88;;
10825;SDS011;5466;55.898;14.094;2023-07-20T02:59:54;4.38;;;3.60;;
10825;SDS011;5466;55.898;14.094;2023-07-20T03:01:55;6.88;;;4.18;;
10825;SDS011;5466;55.898;14.094;2023-07-20T03:03:55;6.88;;;4.10;;
10825;SDS011;5466;55.898;14.094;2023-07-20T03:05:56;4.68;;;3.88;;
10825;SDS011;5466;55.898;14.094;2023-07-20T03:07:59;7.47;;;3.42;;
10825;SDS011;5466;55.898;14.094;2023-07-20T03:10:02;8.35;;;3.95;;
10825;SDS011;5466;55.898;14.094;2023-07-20T03:12:04;5.05;;;3.53;;
10825;SDS011;5466;55.898;14.094;2023-07-20T03:14:05;5.38;;;3.95;;
10825;SDS011;5466;55.898;14.094;2023-07-20T03:16:06;7.90;;;3.80;;
10825;SDS011;5466;55.898;14.094;2023-07-20T03:18:11;5.95;;;3.72;;
10825;SDS011;5466;55.898;14.094;2023-07-20T03:20:11;5.30;;;3.60;;
10825;SDS011;5466;55.898;14.094;2023-07-20T03:22:12;5.88;;;3.85;;
10825;SDS011;5466;55.898;14.094;2023-07-20T03:24:13;7.22;;;3.72;;
10825;SDS011;5466;55.898;14.094;2023-07-20T03:26:14;7.50;;;3.90;;
10825;SDS011;5466;55.898;14.094;2023-07-20T03:28:14;5.20;;;3.95;;
10825;SDS011;5466;55.898;14.094;2023-07-20T03:30:15;9.05;;;3.78;;
10825;SDS011;5466;55.898;14.094;2023-07-20T03:32:16;5.43;;;3.95;;
10825;SDS011;5466;55.898;14.094;2023-07-20T03:34:16;4.45;;;4.03;;
10825;SDS011;5466;55.898;14.094;2023-07-20T03:36:17;6.78;;;3.47;;
10825;SDS011;5466;55.898;14.094;2023-07-20T03:38:18;7.15;;;4.00;;
10825;SDS011;5466;55.898;14.094;2023-07-20T03:40:19;9.07;;;3.92;;
10825;SDS011;5466;55.898;14.094;2023-07-20T03:42:19;5.80;;;3.92;;
10825;SDS011;5466;55.898;14.094;2023-07-20T03:44:20;4.10;;;3.53;;
10825;SDS011;5466;55.898;14.094;2023-07-20T03:46:20;6.82;;;3.85;;
10825;SDS011;5466;55.898;14.094;2023-07-20T03:48:21;7.57;;;4.13;;
10825;SDS011;5466;55.898;14.094;2023-07-20T03:50:23;5.65;;;3.63;;
10825;SDS011;5466;55.898;14.094;2023-07-20T03:52:24;5.53;;;3.88;;
10825;SDS011;5466;55.898;14.094;2023-07-20T03:54:24;5.90;;;3.97;;
10825;SDS011;5466;55.898;14.094;2023-07-20T03:56:25;5.93;;;3.65;;
10825;SDS011;5466;55.898;14.094;2023-07-20T03:58:26;7.05;;;3.85;;
10825;SDS011;5466;55.898;14.094;2023-07-20T04:00:27;7.60;;;3.85;;
10825;SDS011;5466;55.898;14.094;2023-07-20T04:02:27;5.90;;;4.15;;
10825;SDS011;5466;55.898;14.094;2023-07-20T04:04:28;6.07;;;3.95;;
10825;SDS011;5466;55.898;14.094;2023-07-20T04:06:28;5.90;;;4.15;;
10825;SDS011;5466;55.898;14.094;2023-07-20T04:08:29;6.80;;;4.13;;
10825;SDS011;5466;55.898;14.094;2023-07-20T04:10:30;6.80;;;4.18;;
10825;SDS011;5466;55.898;14.094;2023-07-20T04:12:30;6.68;;;4.25;;
10825;SDS011;5466;55.898;14.094;2023-07-20T04:14:31;11.25;;;4.90;;
10825;SDS011;5466;55.898;14.094;2023-07-20T04:16:31;7.15;;;4.00;;
10825;SDS011;5466;55.898;14.094;2023-07-20T04:18:33;9.55;;;4.38;;
10825;SDS011;5466;55.898;14.094;2023-07-20T04:20:33;6.90;;;4.55;;
10825;SDS011;5466;55.898;14.094;2023-07-20T04:22:34;9.55;;;4.55;;
10825;SDS011;5466;55.898;14.094;2023-07-20T04:24:35;10.85;;;4.93;;
10825;SDS011;5466;55.898;14.094;2023-07-20T04:26:36;7.95;;;4.30;;
10825;SDS011;5466;55.898;14.094;2023-07-20T04:28:37;7.03;;;4.40;;
10825;SDS011;5466;55.898;14.094;2023-07-20T04:30:39;5.70;;;3.95;;
10825;SDS011;5466;55.898;14.094;2023-07-20T04:32:40;7.80;;;4.05;;
10825;SDS011;5466;55.898;14.094;2023-07-20T04:34:45;4.93;;;3.90;;
10825;SDS011;5466;55.898;14.094;2023-07-20T04:36:46;10.25;;;4.28;;
10825;SDS011;5466;55.898;14.094;2023-07-20T04:38:46;9.60;;;4.70;;
10825;SDS011;5466;55.898;14.094;2023-07-20T04:40:48;5.80;;;4.22;;
10825;SDS011;5466;55.898;14.094;2023-07-20T04:42:49;6.07;;;4.68;;
10825;SDS011;5466;55.898;14.094;2023-07-20T04:44:49;6.32;;;4.40;;
10825;SDS011;5466;55.898;14.094;2023-07-20T04:46:50;4.65;;;4.20;;
10825;SDS011;5466;55.898;14.094;2023-07-20T04:48:51;4.22;;;3.58;;
10825;SDS011;5466;55.898;14.094;2023-07-20T04:50:51;8.30;;;3.70;;
10825;SDS011;5466;55.898;14.094;2023-07-20T04:52:52;6.47;;;3.60;;
10825;SDS011;5466;55.898;14.094;2023-07-20T04:54:53;3.60;;;3.25;;
10825;SDS011;5466;55.898;14.094;2023-07-20T04:56:53;4.20;;;3.33;;
10825;SDS011;5466;55.898;14.094;2023-07-20T04:58:54;3.13;;;2.65;;
10825;SDS011;5466;55.898;14.094;2023-07-20T05:00:55;9.15;;;2.63;;
10825;SDS011;5466;55.898;14.094;2023-07-20T05:02:55;3.78;;;2.08;;
10825;SDS011;5466;55.898;14.094;2023-07-20T05:04:56;2.92;;;2.40;;
10825;SDS011;5466;55.898;14.094;2023-07-20T05:06:57;4.57;;;2.85;;
10825;SDS011;5466;55.898;14.094;2023-07-20T05:08:57;2.40;;;2.05;;
10825;SDS011;5466;55.898;14.094;2023-07-20T05:10:59;2.42;;;2.08;;
10825;SDS011;5466;55.898;14.094;2023-07-20T05:13:00;4.53;;;2.03;;
10825;SDS011;5466;55.898;14.094;2023-07-20T05:15:00;3.60;;;2.10;;
10825;SDS011;5466;55.898;14.094;2023-07-20T05:17:01;2.42;;;1.88;;
10825;SDS011;5466;55.898;14.094;2023-07-20T05:19:02;2.13;;;1.92;;
10825;SDS011;5466;55.898;14.094;2023-07-20T05:21:02;4.55;;;2.17;;
10825;SDS011;5466;55.898;14.094;2023-07-20T05:23:03;3.42;;;1.95;;
10825;SDS011;5466;55.898;14.094;2023-07-20T05:25:04;2.42;;;1.85;;
10825;SDS011;5466;55.898;14.094;2023-07-20T05:27:06;4.15;;;2.10;;
10825;SDS011;5466;55.898;14.094;2023-07-20T05:29:06;3.63;;;1.92;;
10825;SDS011;5466;55.898;14.094;2023-07-20T05:31:07;4.75;;;1.73;;
10825;SDS011;5466;55.898;14.094;2023-07-20T05:33:07;4.32;;;1.60;;
10825;SDS011;5466;55.898;14.094;2023-07-20T05:35:08;1.55;;;1.45;;
10825;SDS011;5466;55.898;14.094;2023-07-20T05:37:11;2.63;;;1.70;;
10825;SDS011;5466;55.898;14.094;2023-07-20T05:39:12;3.25;;;1.60;;
10825;SDS011;5466;55.898;14.094;2023-07-20T05:41:12;3.13;;;1.73;;
10825;SDS011;5466;55.898;14.094;2023-07-20T05:43:13;1.40;;;1.30;;
10825;SDS011;5466;55.898;14.094;2023-07-20T05:45:14;2.72;;;1.42;;
10825;SDS011;5466;55.898;14.094;2023-07-20T05:47:15;2.30;;;1.60;;
10825;SDS011;5466;55.898;14.094;2023-07-20T05:49:15;1.55;;;1.30;;
10825;SDS011;5466;55.898;14.094;2023-07-20T05:51:16;2.65;;;1.33;;
10825;SDS011;5466;55.898;14.094;2023-07-20T05:53:17;1.63;;;1.27;;
10825;SDS011;5466;55.898;14.094;2023-07-20T05:55:17;2.58;;;1.10;;
10825;SDS011;5466;55.898;14.094;2023-07-20T05:57:18;4.65;;;1.40;;
10825;SDS011;5466;55.898;14.094;2023-07-20T05:59:18;2.22;;;1.40;;
10825;SDS011;5466;55.898;14.094;2023-07-20T06:01:19;2.55;;;1.17;;
10825;SDS011;5466;55.898;14.094;2023-07-20T06:03:20;5.85;;;1.63;;
10825;SDS011;5466;55.898;14.094;2023-07-20T06:05:22;2.75;;;1.67;;
10825;SDS011;5466;55.898;14.094;2023-07-20T06:07:23;2.33;;;1.27;;
10825;SDS011;5466;55.898;14.094;2023-07-20T06:09:24;2.28;;;1.50;;
10825;SDS011;5466;55.898;14.094;2023-07-20T06:11:25;2.17;;;1.50;;
10825;SDS011;5466;55.898;14.094;2023-07-20T06:13:25;3.67;;;1.40;;
10825;SDS011;5466;55.898;14.094;2023-07-20T06:15:31;3.42;;;1.63;;
10825;SDS011;5466;55.898;14.094;2023-07-20T06:17:32;4.35;;;1.90;;
10825;SDS011;5466;55.898;14.094;2023-07-20T06:19:33;3.60;;;1.73;;
10825;SDS011;5466;55.898;14.094;2023-07-20T06:21:33;3.17;;;1.80;;
10825;SDS011;5466;55.898;14.094;2023-07-20T06:23:34;3.15;;;1.55;;
10825;SDS011;5466;55.898;14.094;2023-07-20T06:25:35;2.40;;;1.70;;
10825;SDS011;5466;55.898;14.094;2023-07-20T06:27:36;3.47;;;2.13;;
10825;SDS011;5466;55.898;14.094;2023-07-20T06:29:36;3.88;;;2.00;;
10825;SDS011;5466;55.898;14.094;2023-07-20T06:31:37;3.45;;;2.08;;
10825;SDS011;5466;55.898;14.094;2023-07-20T06:33:37;4.57;;;1.70;;
10825;SDS011;5466;55.898;14.094;2023-07-20T06:35:40;3.08;;;1.80;;
10825;SDS011;5466;55.898;14.094;2023-07-20T06:37:43;3.75;;;1.98;;
10825;SDS011;5466;55.898;14.094;2023-07-20T06:39:43;2.58;;;2.03;;
10825;SDS011;5466;55.898;14.094;2023-07-20T06:41:44;5.50;;;2.67;;
10825;SDS011;5466;55.898;14.094;2023-07-20T06:43:45;3.15;;;1.95;;
10825;SDS011;5466;55.898;14.094;2023-07-20T06:45:50;3.47;;;2.15;;
10825;SDS011;5466;55.898;14.094;2023-07-20T06:47:52;2.88;;;2.20;;
10825;SDS011;5466;55.898;14.094;2023-07-20T06:49:53;3.90;;;2.15;;
10825;SDS011;5466;55.898;14.094;2023-07-20T06:51:54;4.38;;;2.20;;
10825;SDS011;5466;55.898;14.094;2023-07-20T06:53:55;5.45;;;2.30;;
10825;SDS011;5466;55.898;14.094;2023-07-20T06:55:55;4.97;;;2.25;;
10825;SDS011;5466;55.898;14.094;2023-07-20T06:57:59;5.78;;;2.17;;
10825;SDS011;5466;55.898;14.094;2023-07-20T06:59:59;3.72;;;2.03;;
10825;SDS011;5466;55.898;14.094;2023-07-20T07:02:00;4.32;;;2.47;;
10825;SDS011;5466;55.898;14.094;2023-07-20T07:04:00;2.85;;;2.17;;
10825;SDS011;5466;55.898;14.094;2023-07-20T07:06:01;3.28;;;1.98;;
10825;SDS011;5466;55.898;14.094;2023-07-20T07:08:02;5.78;;;3.00;;
10825;SDS011;5466;55.898;14.094;2023-07-20T07:10:04;5.10;;;2.58;;
10825;SDS011;5466;55.898;14.094;2023-07-20T07:12:05;2.67;;;2.22;;
10825;SDS011;5466;55.898;14.094;2023-07-20T07:14:06;7.63;;;2.50;;
10825;SDS011;5466;55.898;14.094;2023-07-20T07:16:07;3.30;;;2.53;;
10825;SDS011;5466;55.898;14.094;2023-07-20T07:18:07;5.35;;;2.22;;
10825;SDS011;5466;55.898;14.094;2023-07-20T07:20:08;5.03;;;2.22;;
10825;SDS011;5466;55.898;14.094;2023-07-20T07:22:09;3.38;;;2.30;;
10825;SDS011;5466;55.898;14.094;2023-07-20T07:24:09;2.40;;;2.17;;
10825;SDS011;5466;55.898;14.094;2023-07-20T07:26:10;2.42;;;2.08;;
10825;SDS011;5466;55.898;14.094;2023-07-20T07:28:11;4.75;;;2.38;;
10825;SDS011;5466;55.898;14.094;2023-07-20T07:30:12;5.55;;;2.63;;
10825;SDS011;5466;55.898;14.094;2023-07-20T07:32:12;4.63;;;2.65;;
10825;SDS011;5466;55.898;14.094;2023-07-20T07:34:13;2.80;;;2.38;;
10825;SDS011;5466;55.898;14.094;2023-07-20T07:36:14;3.83;;;2.30;;
10825;SDS011;5466;55.898;14.094;2023-07-20T07:38:14;5.45;;;2.38;;
10825;SDS011;5466;55.898;14.094;2023-07-20T07:40:15;4.68;;;2.15;;
10825;SDS011;5466;55.898;14.094;2023-07-20T07:42:16;2.97;;;2.05;;
10825;SDS011;5466;55.898;14.094;2023-07-20T07:44:17;4.10;;;2.20;;
10825;SDS011;5466;55.898;14.094;2023-07-20T07:46:18;4.50;;;2.35;;
10825;SDS011;5466;55.898;14.094;2023-07-20T07:48:18;5.63;;;2.35;;
10825;SDS011;5466;55.898;14.094;2023-07-20T07:50:20;3.00;;;2.30;;
10825;SDS011;5466;55.898;14.094;2023-07-20T07:52:21;2.20;;;2.00;;
10825;SDS011;5466;55.898;14.094;2023-07-20T07:54:21;2.72;;;2.10;;
10825;SDS011;5466;55.898;14.094;2023-07-20T07:56:22;5.20;;;2.50;;
10825;SDS011;5466;55.898;14.094;2023-07-20T07:58:22;3.70;;;2.20;;
10825;SDS011;5466;55.898;14.094;2023-07-20T08:00:23;5.38;;;2.63;;
10825;SDS011;5466;55.898;14.094;2023-07-20T08:02:24;3.47;;;2.03;;
10825;SDS011;5466;55.898;14.094;2023-07-20T08:04:24;3.92;;;2.50;;
10825;SDS011;5466;55.898;14.094;2023-07-20T08:06:25;3.75;;;2.30;;
10825;SDS011;5466;55.898;14.094;2023-07-20T08:08:26;3.63;;;2.35;;
10825;SDS011;5466;55.898;14.094;2023-07-20T08:10:26;3.00;;;2.42;;
10825;SDS011;5466;55.898;14.094;2023-07-20T08:12:27;3.55;;;2.20;;
10825;SDS011;5466;55.898;14.094;2023-07-20T08:14:28;4.28;;;2.35;;
10825;SDS011;5466;55.898;14.094;2023-07-20T08:16:28;2.95;;;2.25;;
10825;SDS011;5466;55.898;14.094;2023-07-20T08:18:29;2.70;;;2.20;;
10825;SDS011;5466;55.898;14.094;2023-07-20T08:20:29;4.40;;;2.40;;
10825;SDS011;5466;55.898;14.094;2023-07-20T08:22:32;5.88;;;2.58;;
10825;SDS011;5466;55.898;14.094;2023-07-20T08:24:32;7.00;;;2.35;;
10825;SDS011;5466;55.898;14.094;2023-07-20T08:26:33;3.20;;;2.20;;
10825;SDS011;5466;55.898;14.094;2023-07-20T08:28:34;4.03;;;2.13;;
10825;SDS011;5466;55.898;14.094;2023-07-20T08:32:42;3.65;;;2.40;;
10825;SDS011;5466;55.898;14.094;2023-07-20T08:34:43;3.75;;;2.40;;
10825;SDS011;5466;55.898;14.094;2023-07-20T08:36:44;4.60;;;2.47;;
10825;SDS011;5466;55.898;14.094;2023-07-20T08:38:44;4.40;;;3.03;;
10825;SDS011;5466;55.898;14.094;2023-07-20T08:40:46;4.97;;;2.97;;
10825;SDS011;5466;55.898;14.094;2023-07-20T08:42:48;2.90;;;2.10;;
10825;SDS011;5466;55.898;14.094;2023-07-20T08:44:50;2.60;;;1.92;;
10825;SDS011;5466;55.898;14.094;2023-07-20T08:46:53;2.88;;;1.90;;
10825;SDS011;5466;55.898;14.094;2023-07-20T08:48:54;2.67;;;2.00;;
10825;SDS011;5466;55.898;14.094;2023-07-20T08:50:56;2.30;;;2.10;;
10825;SDS011;5466;55.898;14.094;2023-07-20T08:53:00;4.13;;;2.17;;
10825;SDS011;5466;55.898;14.094;2023-07-20T08:55:03;5.28;;;2.55;;
10825;SDS011;5466;55.898;14.094;2023-07-20T08:57:04;3.70;;;2.10;;
10825;SDS011;5466;55.898;14.094;2023-07-20T09:25:03;3.88;;;2.13;;
10825;SDS011;5466;55.898;14.094;2023-07-20T09:27:34;2.45;;;1.60;;
10825;SDS011;5466;55.898;14.094;2023-07-20T09:29:50;3.30;;;1.50;;
10825;SDS011;5466;55.898;14.094;2023-07-20T09:32:03;3.95;;;1.90;;
10825;SDS011;5466;55.898;14.094;2023-07-20T09:34:04;2.20;;;1.80;;
10825;SDS011;5466;55.898;14.094;2023-07-20T09:36:05;1.95;;;1.33;;
10825;SDS011;5466;55.898;14.094;2023-07-20T09:38:06;1.83;;;1.70;;
10825;SDS011;5466;55.898;14.094;2023-07-20T09:40:09;2.33;;;1.40;;
10825;SDS011;5466;55.898;14.094;2023-07-20T09:42:10;2.70;;;1.50;;
10825;SDS011;5466;55.898;14.094;2023-07-20T09:44:15;2.50;;;1.35;;
10825;SDS011;5466;55.898;14.094;2023-07-20T09:46:16;2.28;;;1.48;;
10825;SDS011;5466;55.898;14.094;2023-07-20T09:48:17;2.60;;;1.45;;
10825;SDS011;5466;55.898;14.094;2023-07-20T09:50:22;4.70;;;1.95;;
10825;SDS011;5466;55.898;14.094;2023-07-20T09:52:23;3.63;;;1.63;;
10825;SDS011;5466;55.898;14.094;2023-07-20T09:54:26;1.65;;;1.45;;
10825;SDS011;5466;55.898;14.094;2023-07-20T09:56:28;3.55;;;1.80;;
10825;SDS011;5466;55.898;14.094;2023-07-20T09:58:30;3.65;;;1.85;;
10825;SDS011;5466;55.898;14.094;2023-07-20T10:00:33;4.88;;;1.90;;
10825;SDS011;5466;55.898;14.094;2023-07-20T10:02:37;3.53;;;2.00;;
10825;SDS011;5466;55.898;14.094;2023-07-20T10:04:44;5.10;;;2.00;;
10825;SDS011;5466;55.898;14.094;2023-07-20T10:06:45;3.67;;;1.95;;
10825;SDS011;5466;55.898;14.094;2023-07-20T10:08:49;3.65;;;2.03;;
10825;SDS011;5466;55.898;14.094;2023-07-20T10:10:53;4.97;;;2.00;;
10825;SDS011;5466;55.898;14.094;2023-07-20T10:12:53;4.88;;;1.70;;
10825;SDS011;5466;55.898;14.094;2023-07-20T10:17:11;3.97;;;2.15;;
10825;SDS011;5466;55.898;14.094;2023-07-20T10:19:15;6.07;;;2.03;;
10825;SDS011;5466;55.898;14.094;2023-07-20T10:21:25;3.47;;;1.80;;
10825;SDS011;5466;55.898;14.094;2023-07-20T10:23:26;3.90;;;2.00;;
10825;SDS011;5466;55.898;14.094;2023-07-20T10:25:32;3.88;;;1.95;;
10825;SDS011;5466;55.898;14.094;2023-07-20T10:27:37;4.15;;;1.95;;
10825;SDS011;5466;55.898;14.094;2023-07-20T10:29:39;5.30;;;2.38;;
10825;SDS011;5466;55.898;14.094;2023-07-20T10:31:41;2.75;;;2.10;;
10825;SDS011;5466;55.898;14.094;2023-07-20T10:33:41;2.55;;;1.98;;
10825;SDS011;5466;55.898;14.094;2023-07-20T10:36:00;4.80;;;2.20;;
10825;SDS011;5466;55.898;14.094;2023-07-20T10:38:03;2.70;;;1.88;;
10825;SDS011;5466;55.898;14.094;2023-07-20T10:40:23;3.15;;;1.90;;
10825;SDS011;5466;55.898;14.094;2023-07-20T10:42:25;3.10;;;1.65;;
10825;SDS011;5466;55.898;14.094;2023-07-20T10:44:33;3.00;;;1.50;;
10825;SDS011;5466;55.898;14.094;2023-07-20T10:48:59;5.35;;;2.42;;
10825;SDS011;5466;55.898;14.094;2023-07-20T10:51:13;4.82;;;2.13;;
10825;SDS011;5466;55.898;14.094;2023-07-20T10:53:20;6.82;;;1.85;;
10825;SDS011;5466;55.898;14.094;2023-07-20T10:55:20;5.07;;;1.80;;
10825;SDS011;5466;55.898;14.094;2023-07-20T10:57:22;3.45;;;1.73;;
10825;SDS011;5466;55.898;14.094;2023-07-20T11:01:28;1.58;;;1.27;;
10825;SDS011;5466;55.898;14.094;2023-07-20T11:03:34;3.10;;;1.30;;
10825;SDS011;5466;55.898;14.094;2023-07-20T11:05:37;1.75;;;1.40;;
10825;SDS011;5466;55.898;14.094;2023-07-20T11:07:40;3.25;;;1.60;;
10825;SDS011;5466;55.898;14.094;2023-07-20T11:09:41;1.85;;;1.25;;
10825;SDS011;5466;55.898;14.094;2023-07-20T11:11:43;1.73;;;1.30;;
10825;SDS011;5466;55.898;14.094;2023-07-20T11:13:58;3.00;;;1.50;;
10825;SDS011;5466;55.898;14.094;2023-07-20T11:16:04;2.28;;;1.33;;
10825;SDS011;5466;55.898;14.094;2023-07-20T11:18:12;2.42;;;1.40;;
10825;SDS011;5466;55.898;14.094;2023-07-20T11:20:12;2.28;;;1.50;;
10825;SDS011;5466;55.898;14.094;2023-07-20T11:22:16;2.17;;;1.52;;
10825;SDS011;5466;55.898;14.094;2023-07-20T11:24:17;3.58;;;1.70;;
10825;SDS011;5466;55.898;14.094;2023-07-20T11:26:18;2.13;;;1.38;;
10825;SDS011;5466;55.898;14.094;2023-07-20T11:28:19;1.63;;;1.40;;
10825;SDS011;5466;55.898;14.094;2023-07-20T11:30:20;2.17;;;1.20;;
10825;SDS011;5466;55.898;14.094;2023-07-20T11:32:20;2.17;;;1.27;;
10825;SDS011;5466;55.898;14.094;2023-07-20T11:34:22;3.42;;;1.65;;
10825;SDS011;5466;55.898;14.094;2023-07-20T11:36:22;2.15;;;1.30;;
10825;SDS011;5466;55.898;14.094;2023-07-20T11:38:23;3.03;;;1.30;;
10825;SDS011;5466;55.898;14.094;2023-07-20T11:40:24;1.75;;;1.27;;
10825;SDS011;5466;55.898;14.094;2023-07-20T11:42:25;2.70;;;1.58;;
10825;SDS011;5466;55.898;14.094;2023-07-20T11:44:26;4.40;;;1.30;;
10825;SDS011;5466;55.898;14.094;2023-07-20T11:46:27;2.67;;;1.40;;
10825;SDS011;5466;55.898;14.094;2023-07-20T11:48:29;1.17;;;1.05;;
10825;SDS011;5466;55.898;14.094;2023-07-20T11:50:30;1.20;;;1.10;;
10825;SDS011;5466;55.898;14.094;2023-07-20T11:52:30;3.30;;;1.40;;
10825;SDS011;5466;55.898;14.094;2023-07-20T11:54:32;1.10;;;1.00;;
10825;SDS011;5466;55.898;14.094;2023-07-20T11:56:34;3.55;;;1.10;;
10825;SDS011;5466;55.898;14.094;2023-07-20T11:58:34;1.40;;;0.80;;
10825;SDS011;5466;55.898;14.094;2023-07-20T12:00:36;2.10;;;1.00;;
10825;SDS011;5466;55.898;14.094;2023-07-20T12:02:39;1.92;;;1.20;;
10825;SDS011;5466;55.898;14.094;2023-07-20T12:04:40;1.50;;;1.10;;
10825;SDS011;5466;55.898;14.094;2023-07-20T12:06:41;1.65;;;0.93;;
10825;SDS011;5466;55.898;14.094;2023-07-20T12:08:42;1.20;;;1.00;;
10825;SDS011;5466;55.898;14.094;2023-07-20T12:10:44;1.60;;;0.90;;
10825;SDS011;5466;55.898;14.094;2023-07-20T12:12:44;1.80;;;0.70;;
10825;SDS011;5466;55.898;14.094;2023-07-20T12:14:45;1.50;;;0.85;;
10825;SDS011;5466;55.898;14.094;2023-07-20T12:16:51;1.83;;;0.75;;
10825;SDS011;5466;55.898;14.094;2023-07-20T12:21:02;2.55;;;1.00;;
10825;SDS011;5466;55.898;14.094;2023-07-20T12:25:09;2.60;;;1.02;;
10825;SDS011;5466;55.898;14.094;2023-07-20T12:27:12;2.55;;;0.90;;
10825;SDS011;5466;55.898;14.094;2023-07-20T12:29:13;1.60;;;1.00;;
10825;SDS011;5466;55.898;14.094;2023-07-20T12:31:14;3.33;;;0.80;;
10825;SDS011;5466;55.898;14.094;2023-07-20T12:33:15;1.55;;;0.85;;
10825;SDS011;5466;55.898;14.094;2023-07-20T12:35:17;2.55;;;1.00;;
10825;SDS011;5466;55.898;14.094;2023-07-20T12:37:17;2.50;;;1.02;;
10825;SDS011;5466;55.898;14.094;2023-07-20T12:39:18;3.50;;;1.00;;
10825;SDS011;5466;55.898;14.094;2023-07-20T12:41:19;2.03;;;1.13;;
10825;SDS011;5466;55.898;14.094;2023-07-20T12:43:20;1.05;;;0.80;;
10825;SDS011;5466;55.898;14.094;2023-07-20T12:45:21;2.80;;;1.02;;
10825;SDS011;5466;55.898;14.094;2023-07-20T12:47:22;0.90;;;0.68;;
10825;SDS011;5466;55.898;14.094;2023-07-20T12:49:22;1.58;;;0.90;;
10825;SDS011;5466;55.898;14.094;2023-07-20T12:51:23;1.30;;;0.80;;
10825;SDS011;5466;55.898;14.094;2023-07-20T12:53:24;1.00;;;0.90;;
10825;SDS011;5466;55.898;14.094;2023-07-20T12:55:24;2.50;;;1.30;;
10825;SDS011;5466;55.898;14.094;2023-07-20T12:57:25;1.00;;;0.90;;
10825;SDS011;5466;55.898;14.094;2023-07-20T12:59:25;1.67;;;0.80;;